Cement, Oklahoma
Current Conditions -  °F | °C
As of 8:31 PM on Wednesday 22 Oct 2014 (Local Time) from KFSI Reporting Station
Light Rain Light Rain  
Wind Chill: 64°   Ceiling: Unl
Heat Index: 64°   Visibility: 10mi
Dew Point: 63°   Wind: 0mph
Humidity: 94%   Direction: NA
Pressure: 30.1"   Gusts: NA
Location:  34.93°N, 98.14°W
Report Text: KFSI 230131Z AUTO 00000KT 10SM -RA FEW042 18/17 A3010 RMK AO2 RAB0127DZB0112E0123
Loading
Personal Weather Stations






























Interactive Weather Map
Tropical Storm Tracking
New forecast layout! Learn more

10-Day Weather Forecast

Advertisements
Track Severe Weather on mobile